sensor_id;sensor_type;location;lat;lon;timestamp;pressure;altitude;pressure_sealevel;temperature;humidity
35758;BME280;21879;50.110;18.900;2023-05-12T00:00:48;98786.88;;;14.31;43.05
35758;BME280;21879;50.110;18.900;2023-05-12T00:11:14;98792.59;;;14.19;43.46
35758;BME280;21879;50.110;18.900;2023-05-12T00:21:40;98793.59;;;14.13;43.56
35758;BME280;21879;50.110;18.900;2023-05-12T00:32:07;98790.19;;;14.17;43.66
35758;BME280;21879;50.110;18.900;2023-05-12T00:42:34;98792.82;;;14.08;43.66
35758;BME280;21879;50.110;18.900;2023-05-12T00:53:01;98792.58;;;13.87;43.91
35758;BME280;21879;50.110;18.900;2023-05-12T01:03:27;98794.11;;;13.73;44.10
35758;BME280;21879;50.110;18.900;2023-05-12T01:13:53;98798.09;;;13.57;44.32
35758;BME280;21879;50.110;18.900;2023-05-12T01:24:21;98797.66;;;13.35;44.90
35758;BME280;21879;50.110;18.900;2023-05-12T01:34:50;98798.58;;;13.02;45.35
35758;BME280;21879;50.110;18.900;2023-05-12T01:45:17;98801.03;;;12.72;45.95
35758;BME280;21879;50.110;18.900;2023-05-12T01:55:43;98803.99;;;12.50;46.44
35758;BME280;21879;50.110;18.900;2023-05-12T02:06:09;98806.84;;;12.35;46.73
35758;BME280;21879;50.110;18.900;2023-05-12T02:16:35;98809.13;;;12.33;47.23
35758;BME280;21879;50.110;18.900;2023-05-12T02:27:01;98808.91;;;12.25;47.42
35758;BME280;21879;50.110;18.900;2023-05-12T02:37:27;98812.81;;;12.19;47.47
35758;BME280;21879;50.110;18.900;2023-05-12T02:47:53;98818.60;;;12.05;47.70
35758;BME280;21879;50.110;18.900;2023-05-12T02:58:18;98812.58;;;11.99;47.85
35758;BME280;21879;50.110;18.900;2023-05-12T03:08:45;98812.54;;;11.89;48.09
35758;BME280;21879;50.110;18.900;2023-05-12T03:19:11;98815.09;;;11.77;48.54
35758;BME280;21879;50.110;18.900;2023-05-12T03:29:47;98815.73;;;11.54;48.63
35758;BME280;21879;50.110;18.900;2023-05-12T03:40:14;98824.33;;;11.31;49.00
35758;BME280;21879;50.110;18.900;2023-05-12T03:50:42;98822.08;;;11.14;49.56
35758;BME280;21879;50.110;18.900;2023-05-12T04:01:08;98829.89;;;11.14;49.94
35758;BME280;21879;50.110;18.900;2023-05-12T04:11:34;98837.52;;;11.18;50.28
35758;BME280;21879;50.110;18.900;2023-05-12T04:22:00;98840.71;;;11.30;50.44
35758;BME280;21879;50.110;18.900;2023-05-12T04:32:26;98842.56;;;11.16;50.68
35758;BME280;21879;50.110;18.900;2023-05-12T04:42:52;98842.61;;;11.30;51.72
35758;BME280;21879;50.110;18.900;2023-05-12T04:53:17;98847.93;;;11.99;52.84
35758;BME280;21879;50.110;18.900;2023-05-12T05:03:43;98842.46;;;12.98;52.31
35758;BME280;21879;50.110;18.900;2023-05-12T05:14:10;98840.37;;;14.01;50.48
35758;BME280;21879;50.110;18.900;2023-05-12T05:24:36;98836.69;;;14.72;48.28
35758;BME280;21879;50.110;18.900;2023-05-12T05:35:01;98837.69;;;15.49;46.92
35758;BME280;21879;50.110;18.900;2023-05-12T05:45:27;98843.38;;;15.91;44.73
35758;BME280;21879;50.110;18.900;2023-05-12T05:55:53;98852.07;;;16.00;43.90
35758;BME280;21879;50.110;18.900;2023-05-12T06:06:18;98845.83;;;16.55;43.80
35758;BME280;21879;50.110;18.900;2023-05-12T06:16:45;98853.31;;;17.38;42.99
35758;BME280;21879;50.110;18.900;2023-05-12T06:27:11;98853.38;;;18.06;42.12
35758;BME280;21879;50.110;18.900;2023-05-12T06:37:37;98849.77;;;18.40;40.73
35758;BME280;21879;50.110;18.900;2023-05-12T06:48:04;98847.40;;;18.51;39.51
35758;BME280;21879;50.110;18.900;2023-05-12T06:58:30;98841.30;;;18.50;39.39
35758;BME280;21879;50.110;18.900;2023-05-12T07:08:56;98834.32;;;18.92;39.36
35758;BME280;21879;50.110;18.900;2023-05-12T07:19:22;98832.25;;;19.13;38.56
35758;BME280;21879;50.110;18.900;2023-05-12T07:29:48;98830.22;;;19.68;38.45
35758;BME280;21879;50.110;18.900;2023-05-12T07:40:14;98834.04;;;19.85;37.13
35758;BME280;21879;50.110;18.900;2023-05-12T07:50:40;98834.13;;;19.80;37.28
35758;BME280;21879;50.110;18.900;2023-05-12T08:01:06;98836.06;;;19.68;37.13
35758;BME280;21879;50.110;18.900;2023-05-12T08:11:33;98836.59;;;19.51;37.36
35758;BME280;21879;50.110;18.900;2023-05-12T08:21:58;98839.85;;;19.66;36.78
35758;BME280;21879;50.110;18.900;2023-05-12T08:32:25;98842.70;;;19.73;37.44
35758;BME280;21879;50.110;18.900;2023-05-12T08:42:59;98843.60;;;19.89;37.32
35758;BME280;21879;50.110;18.900;2023-05-12T08:53:30;98850.30;;;19.93;36.74
35758;BME280;21879;50.110;18.900;2023-05-12T09:03:59;98846.53;;;19.78;36.56
35758;BME280;21879;50.110;18.900;2023-05-12T09:14:26;98845.52;;;19.81;36.55
35758;BME280;21879;50.110;18.900;2023-05-12T09:24:53;98845.92;;;20.00;36.74
35758;BME280;21879;50.110;18.900;2023-05-12T09:35:19;98839.17;;;20.20;37.37
35758;BME280;21879;50.110;18.900;2023-05-12T09:45:46;98836.79;;;20.52;36.63
35758;BME280;21879;50.110;18.900;2023-05-12T09:56:14;98837.46;;;20.64;35.05
35758;BME280;21879;50.110;18.900;2023-05-12T10:06:42;98829.33;;;20.64;34.76
35758;BME280;21879;50.110;18.900;2023-05-12T10:17:09;98826.31;;;20.72;34.40
35758;BME280;21879;50.110;18.900;2023-05-12T10:27:36;98829.77;;;20.59;33.84
35758;BME280;21879;50.110;18.900;2023-05-12T10:38:04;98835.30;;;20.42;33.32
35758;BME280;21879;50.110;18.900;2023-05-12T10:48:31;98830.06;;;20.40;33.12
35758;BME280;21879;50.110;18.900;2023-05-12T10:59:16;98827.23;;;20.30;32.86
35758;BME280;21879;50.110;18.900;2023-05-12T11:09:45;98835.57;;;20.25;32.52
35758;BME280;21879;50.110;18.900;2023-05-12T11:20:24;98833.06;;;20.11;31.84
35758;BME280;21879;50.110;18.900;2023-05-12T11:31:02;98836.64;;;19.91;31.70
35758;BME280;21879;50.110;18.900;2023-05-12T11:41:29;98839.34;;;19.89;32.03
35758;BME280;21879;50.110;18.900;2023-05-12T11:51:56;98842.29;;;20.06;32.18
35758;BME280;21879;50.110;18.900;2023-05-12T12:02:22;98837.49;;;20.14;31.49
35758;BME280;21879;50.110;18.900;2023-05-12T12:12:49;98839.12;;;20.17;30.85
35758;BME280;21879;50.110;18.900;2023-05-12T12:23:15;98832.34;;;20.30;30.43
35758;BME280;21879;50.110;18.900;2023-05-12T12:33:41;98836.08;;;20.52;30.74
35758;BME280;21879;50.110;18.900;2023-05-12T12:44:07;98839.98;;;20.63;30.64
35758;BME280;21879;50.110;18.900;2023-05-12T12:54:33;98850.98;;;20.51;30.49
35758;BME280;21879;50.110;18.900;2023-05-12T13:04:59;98854.25;;;20.30;30.68
35758;BME280;21879;50.110;18.900;2023-05-12T13:15:27;98852.34;;;20.10;31.07
35758;BME280;21879;50.110;18.900;2023-05-12T13:25:55;98853.89;;;20.03;31.58
35758;BME280;21879;50.110;18.900;2023-05-12T13:36:23;98849.30;;;19.91;32.13
35758;BME280;21879;50.110;18.900;2023-05-12T13:46:49;98844.17;;;20.00;32.48
35758;BME280;21879;50.110;18.900;2023-05-12T13:57:15;98839.30;;;19.98;31.97
35758;BME280;21879;50.110;18.900;2023-05-12T14:07:40;98833.58;;;19.88;32.05
35758;BME280;21879;50.110;18.900;2023-05-12T14:18:07;98834.73;;;19.82;31.58
35758;BME280;21879;50.110;18.900;2023-05-12T14:28:33;98835.79;;;19.78;31.75
35758;BME280;21879;50.110;18.900;2023-05-12T14:38:59;98833.05;;;19.80;32.26
35758;BME280;21879;50.110;18.900;2023-05-12T14:49:25;98835.74;;;19.79;32.42
35758;BME280;21879;50.110;18.900;2023-05-12T14:59:51;98833.25;;;19.80;32.48
35758;BME280;21879;50.110;18.900;2023-05-12T15:10:22;98834.02;;;19.78;32.10
35758;BME280;21879;50.110;18.900;2023-05-12T15:20:48;98836.66;;;19.75;32.11
35758;BME280;21879;50.110;18.900;2023-05-12T15:31:15;98838.28;;;19.65;32.24
35758;BME280;21879;50.110;18.900;2023-05-12T15:41:41;98849.89;;;19.41;32.63
35758;BME280;21879;50.110;18.900;2023-05-12T15:52:08;98846.62;;;19.31;33.06
35758;BME280;21879;50.110;18.900;2023-05-12T16:02:35;98853.19;;;19.22;32.70
35758;BME280;21879;50.110;18.900;2023-05-12T16:13:00;98849.50;;;19.09;32.28
35758;BME280;21879;50.110;18.900;2023-05-12T16:23:26;98846.02;;;19.04;31.98
35758;BME280;21879;50.110;18.900;2023-05-12T16:33:52;98867.52;;;18.95;31.93
35758;BME280;21879;50.110;18.900;2023-05-12T16:44:18;98859.56;;;18.91;31.90
35758;BME280;21879;50.110;18.900;2023-05-12T16:54:43;98869.03;;;18.97;32.28
35758;BME280;21879;50.110;18.900;2023-05-12T17:05:10;98873.98;;;18.79;31.99
35758;BME280;21879;50.110;18.900;2023-05-12T17:15:37;98876.40;;;18.71;32.18
35758;BME280;21879;50.110;18.900;2023-05-12T17:26:03;98887.59;;;18.68;32.53
35758;BME280;21879;50.110;18.900;2023-05-12T17:36:29;98894.70;;;18.63;32.62
35758;BME280;21879;50.110;18.900;2023-05-12T17:46:55;98904.67;;;18.50;32.72
35758;BME280;21879;50.110;18.900;2023-05-12T17:57:21;98913.88;;;18.35;33.18
35758;BME280;21879;50.110;18.900;2023-05-12T18:07:47;98918.35;;;18.09;33.35
35758;BME280;21879;50.110;18.900;2023-05-12T18:18:13;98920.85;;;17.89;33.77
35758;BME280;21879;50.110;18.900;2023-05-12T18:28:39;98929.33;;;17.78;33.91
35758;BME280;21879;50.110;18.900;2023-05-12T18:39:05;98938.86;;;17.61;34.38
35758;BME280;21879;50.110;18.900;2023-05-12T18:49:31;98954.77;;;17.47;34.57
35758;BME280;21879;50.110;18.900;2023-05-12T18:59:56;98960.77;;;17.31;34.65
35758;BME280;21879;50.110;18.900;2023-05-12T19:10:22;98961.44;;;17.16;34.63
35758;BME280;21879;50.110;18.900;2023-05-12T19:20:48;98970.52;;;17.06;34.81
35758;BME280;21879;50.110;18.900;2023-05-12T19:31:14;98978.38;;;17.08;34.91
35758;BME280;21879;50.110;18.900;2023-05-12T19:41:40;98979.67;;;16.95;35.03
35758;BME280;21879;50.110;18.900;2023-05-12T19:52:07;98990.88;;;16.72;35.33
35758;BME280;21879;50.110;18.900;2023-05-12T20:02:32;98994.77;;;16.70;35.63
35758;BME280;21879;50.110;18.900;2023-05-12T20:12:58;98998.37;;;16.56;35.71
35758;BME280;21879;50.110;18.900;2023-05-12T20:23:26;98990.64;;;16.50;36.07
35758;BME280;21879;50.110;18.900;2023-05-12T20:33:52;98984.48;;;16.44;36.17
35758;BME280;21879;50.110;18.900;2023-05-12T20:44:17;98978.52;;;16.32;36.42
35758;BME280;21879;50.110;18.900;2023-05-12T20:54:44;98980.23;;;16.39;36.56
35758;BME280;21879;50.110;18.900;2023-05-12T21:05:10;98984.78;;;16.39;36.58
35758;BME280;21879;50.110;18.900;2023-05-12T21:15:36;98991.19;;;16.36;36.55
35758;BME280;21879;50.110;18.900;2023-05-12T21:26:02;99003.03;;;16.40;36.65
35758;BME280;21879;50.110;18.900;2023-05-12T21:36:28;99012.20;;;16.44;37.05
35758;BME280;21879;50.110;18.900;2023-05-12T21:46:55;99026.05;;;16.19;37.88
35758;BME280;21879;50.110;18.900;2023-05-12T21:57:21;99034.45;;;15.80;38.32
35758;BME280;21879;50.110;18.900;2023-05-12T22:07:47;99031.63;;;15.67;38.71
35758;BME280;21879;50.110;18.900;2023-05-12T22:18:13;99029.59;;;15.63;39.43
35758;BME280;21879;50.110;18.900;2023-05-12T22:28:38;99032.77;;;15.71;39.90
35758;BME280;21879;50.110;18.900;2023-05-12T22:39:04;99041.42;;;15.74;39.82
35758;BME280;21879;50.110;18.900;2023-05-12T22:49:30;99045.74;;;15.55;40.04
35758;BME280;21879;50.110;18.900;2023-05-12T22:59:56;99050.19;;;15.29;40.49
35758;BME280;21879;50.110;18.900;2023-05-12T23:10:22;99054.94;;;14.98;41.31
35758;BME280;21879;50.110;18.900;2023-05-12T23:20:47;99056.44;;;14.84;42.01
35758;BME280;21879;50.110;18.900;2023-05-12T23:31:13;99061.44;;;14.63;42.33
35758;BME280;21879;50.110;18.900;2023-05-12T23:41:39;99056.56;;;14.51;43.34
35758;BME280;21879;50.110;18.900;2023-05-12T23:52:05;99052.10;;;14.46;44.29
